createdAt,value
2019-06-27T00:00:05.400Z,57
2019-06-27T00:01:07.895Z,58
2019-06-27T00:02:09.992Z,58
2019-06-27T00:03:12.085Z,57
2019-06-27T00:04:14.152Z,57
2019-06-27T00:05:16.295Z,57
2019-06-27T00:06:18.401Z,58
2019-06-27T00:07:20.543Z,57
2019-06-27T00:08:23.038Z,57
2019-06-27T00:09:25.828Z,57
2019-06-27T00:10:28.335Z,58
2019-06-27T00:11:30.836Z,57
2019-06-27T00:12:33.004Z,57
2019-06-27T00:13:35.085Z,57
2019-06-27T00:14:37.170Z,58
2019-06-27T00:15:39.926Z,58
2019-06-27T00:16:43.200Z,60
2019-06-27T00:17:45.336Z,60
2019-06-27T00:18:47.375Z,59
2019-06-27T00:19:49.492Z,59
2019-06-27T00:20:51.617Z,58
2019-06-27T00:21:54.104Z,58
2019-06-27T00:22:56.249Z,58
2019-06-27T00:23:58.346Z,58
2019-06-27T00:25:00.756Z,59
2019-06-27T00:26:03.200Z,59
2019-06-27T00:27:05.353Z,59
2019-06-27T00:28:07.696Z,58
2019-06-27T00:29:09.769Z,60
2019-06-27T00:30:11.967Z,60
2019-06-27T00:31:14.415Z,60
2019-06-27T00:32:16.491Z,60
2019-06-27T00:33:18.596Z,60
2019-06-27T00:34:20.676Z,60
2019-06-27T00:35:22.754Z,59
2019-06-27T00:36:24.828Z,59
2019-06-27T00:37:26.997Z,59
2019-06-27T00:38:29.095Z,59
2019-06-27T00:39:31.520Z,60
2019-06-27T00:40:33.625Z,59
2019-06-27T00:41:36.031Z,59
2019-06-27T00:42:38.188Z,60
2019-06-27T00:43:40.285Z,60
2019-06-27T00:44:42.404Z,60
2019-06-27T00:45:44.497Z,61
2019-06-27T00:46:46.917Z,60
2019-06-27T00:47:49.003Z,60
2019-06-27T00:48:51.481Z,60
2019-06-27T00:49:53.625Z,61
2019-06-27T00:50:55.714Z,60
2019-06-27T00:51:57.864Z,60
2019-06-27T00:52:59.953Z,60
2019-06-27T00:54:02.115Z,61
2019-06-27T00:55:04.530Z,62
2019-06-27T00:56:07.012Z,61
2019-06-27T00:57:15.587Z,60
2019-06-27T00:58:17.970Z,59
2019-06-27T00:59:20.944Z,59
2019-06-27T01:00:23.028Z,59
2019-06-27T01:01:25.147Z,59
2019-06-27T01:02:27.589Z,60
2019-06-27T01:03:30.088Z,60
2019-06-27T01:04:32.185Z,61
2019-06-27T01:05:34.640Z,60
2019-06-27T01:06:36.788Z,60
2019-06-27T01:07:38.866Z,60
2019-06-27T01:08:40.944Z,60
2019-06-27T01:09:43.084Z,59
2019-06-27T01:10:45.530Z,59
2019-06-27T01:11:48.639Z,59
2019-06-27T01:12:50.730Z,59
2019-06-27T01:13:52.774Z,60
2019-06-27T01:14:54.864Z,60
2019-06-27T01:15:56.959Z,59
2019-06-27T01:16:59.119Z,59
2019-06-27T01:18:01.856Z,59
2019-06-27T01:19:04.607Z,59
2019-06-27T01:20:06.697Z,59
2019-06-27T01:21:08.786Z,59
2019-06-27T01:22:10.940Z,59
2019-06-27T01:23:13.404Z,59
2019-06-27T01:24:15.484Z,59
2019-06-27T01:25:17.515Z,59
2019-06-27T01:26:19.651Z,59
2019-06-27T01:27:31.265Z,60
2019-06-27T01:28:33.840Z,60
2019-06-27T01:29:36.260Z,60
2019-06-27T01:30:38.363Z,60
2019-06-27T01:31:40.489Z,60
2019-06-27T01:32:42.581Z,59
2019-06-27T01:33:45.098Z,59
2019-06-27T01:34:47.876Z,60
2019-06-27T01:35:50.352Z,60
2019-06-27T01:36:52.447Z,60
2019-06-27T01:37:55.203Z,60
2019-06-27T01:38:57.331Z,60
2019-06-27T01:39:59.709Z,60
2019-06-27T01:41:01.787Z,61
2019-06-27T01:42:04.264Z,61
2019-06-27T01:43:06.340Z,60
2019-06-27T01:44:08.796Z,60
2019-06-27T01:45:11.264Z,60
2019-06-27T01:46:13.462Z,60
2019-06-27T01:47:15.560Z,60
2019-06-27T01:48:17.940Z,59
2019-06-27T01:49:20.101Z,59
2019-06-27T01:50:22.147Z,60
2019-06-27T01:51:24.224Z,60
2019-06-27T01:52:26.308Z,60
2019-06-27T01:53:28.404Z,61
2019-06-27T01:54:30.490Z,61
2019-06-27T01:55:32.581Z,61
2019-06-27T01:56:35.181Z,60
2019-06-27T01:57:48.348Z,60
2019-06-27T01:58:50.460Z,61
2019-06-27T01:59:52.558Z,61
2019-06-27T02:00:54.624Z,61
2019-06-27T02:01:56.745Z,61
2019-06-27T02:02:58.889Z,61
2019-06-27T02:04:01.585Z,61
2019-06-27T02:05:03.626Z,60
2019-06-27T02:06:05.850Z,60
2019-06-27T02:07:08.329Z,61
2019-06-27T02:08:10.454Z,61
2019-06-27T02:09:12.853Z,61
2019-06-27T02:10:14.950Z,61
2019-06-27T02:11:17.101Z,61
2019-06-27T02:12:19.566Z,60
2019-06-27T02:13:22.964Z,61
2019-06-27T02:14:25.070Z,62
2019-06-27T02:15:27.422Z,61
2019-06-27T02:16:29.559Z,60
2019-06-27T02:17:31.698Z,60
2019-06-27T02:18:34.226Z,61
2019-06-27T02:19:36.313Z,62
2019-06-27T02:20:38.738Z,62
2019-06-27T02:21:41.419Z,62
2019-06-27T02:22:43.573Z,61
2019-06-27T02:23:45.723Z,61
2019-06-27T02:24:47.795Z,62
2019-06-27T02:25:49.941Z,62
2019-06-27T02:26:52.039Z,61
2019-06-27T02:28:05.332Z,61
2019-06-27T02:29:07.708Z,61
2019-06-27T02:30:10.093Z,62
2019-06-27T02:31:13.159Z,61
2019-06-27T02:32:16.212Z,62
2019-06-27T02:33:18.947Z,61
2019-06-27T02:34:21.617Z,61
2019-06-27T02:35:24.019Z,61
2019-06-27T02:36:26.153Z,61
2019-06-27T02:37:28.891Z,61
2019-06-27T02:38:31.043Z,61
2019-06-27T02:39:33.091Z,61
2019-06-27T02:40:35.892Z,62
2019-06-27T02:41:37.983Z,62
2019-06-27T02:42:40.773Z,62
2019-06-27T02:43:42.952Z,61
2019-06-27T02:44:45.036Z,61
2019-06-27T02:45:47.550Z,61
2019-06-27T02:46:49.628Z,61
2019-06-27T02:47:52.251Z,61
2019-06-27T02:48:54.378Z,62
2019-06-27T02:49:56.508Z,62
2019-06-27T02:50:59.318Z,61
2019-06-27T02:52:01.414Z,61
2019-06-27T02:53:03.984Z,62
2019-06-27T02:54:06.478Z,62
2019-06-27T02:55:09.237Z,62
2019-06-27T02:56:11.607Z,62
2019-06-27T02:57:13.722Z,61
2019-06-27T02:58:33.834Z,61
2019-06-27T02:59:35.905Z,61
2019-06-27T03:00:38.086Z,61
2019-06-27T03:01:40.818Z,61
2019-06-27T03:02:43.861Z,61
2019-06-27T03:03:47.074Z,60
2019-06-27T03:04:49.747Z,59
2019-06-27T03:05:52.168Z,60
2019-06-27T03:06:54.244Z,60
2019-06-27T03:07:56.391Z,60
2019-06-27T03:08:58.467Z,60
2019-06-27T03:10:01.795Z,60
2019-06-27T03:11:04.332Z,60
2019-06-27T03:12:06.794Z,60
2019-06-27T03:13:09.571Z,59
2019-06-27T03:14:12.377Z,60
2019-06-27T03:15:14.553Z,60
2019-06-27T03:16:16.603Z,60
2019-06-27T03:17:18.703Z,60
2019-06-27T03:18:20.743Z,60
2019-06-27T03:19:23.201Z,60
2019-06-27T03:20:25.441Z,61
2019-06-27T03:21:27.919Z,60
2019-06-27T03:22:30.013Z,60
2019-06-27T03:23:32.116Z,59
2019-06-27T03:24:34.474Z,59
2019-06-27T03:25:36.577Z,59
2019-06-27T03:26:38.707Z,60
2019-06-27T03:27:41.552Z,60
2019-06-27T03:28:55.277Z,61
2019-06-27T03:29:57.918Z,60
2019-06-27T03:31:00.186Z,59
2019-06-27T03:32:02.865Z,60
2019-06-27T03:33:06.089Z,60
2019-06-27T03:34:08.239Z,60
2019-06-27T03:35:11.151Z,60
2019-06-27T03:36:14.037Z,60
2019-06-27T03:37:16.478Z,60
2019-06-27T03:38:18.607Z,60
2019-06-27T03:39:20.979Z,62
2019-06-27T03:40:23.429Z,61
2019-06-27T03:41:26.794Z,61
2019-06-27T03:42:28.957Z,60
2019-06-27T03:43:31.042Z,60
2019-06-27T03:44:33.481Z,60
2019-06-27T03:45:35.618Z,60
2019-06-27T03:46:38.337Z,60
2019-06-27T03:47:41.428Z,60
2019-06-27T03:48:43.544Z,60
2019-06-27T03:49:45.947Z,60
2019-06-27T03:50:48.049Z,60
2019-06-27T03:51:50.549Z,59
2019-06-27T03:52:52.953Z,60
2019-06-27T03:53:55.042Z,60
2019-06-27T03:54:57.183Z,60
2019-06-27T03:55:59.841Z,60
2019-06-27T03:57:02.184Z,60
2019-06-27T03:58:04.875Z,59
2019-06-27T03:59:14.992Z,60
2019-06-27T04:00:17.118Z,61
2019-06-27T04:01:20.084Z,61
2019-06-27T04:02:22.816Z,61
2019-06-27T04:03:25.482Z,60
2019-06-27T04:04:27.571Z,60
2019-06-27T04:05:29.977Z,59
2019-06-27T04:06:32.733Z,59
2019-06-27T04:07:34.872Z,59
2019-06-27T04:08:37.772Z,59
2019-06-27T04:09:40.245Z,59
2019-06-27T04:10:42.944Z,59
2019-06-27T04:11:45.331Z,59
2019-06-27T04:12:47.787Z,59
2019-06-27T04:13:50.263Z,59
2019-06-27T04:14:52.979Z,59
2019-06-27T04:15:55.450Z,60
2019-06-27T04:16:57.883Z,59
2019-06-27T04:18:00.364Z,59
2019-06-27T04:19:02.463Z,58
2019-06-27T04:20:04.884Z,59
2019-06-27T04:21:07.885Z,59
2019-06-27T04:22:09.985Z,60
2019-06-27T04:23:12.061Z,59
2019-06-27T04:24:14.499Z,59
2019-06-27T04:25:16.709Z,59
2019-06-27T04:26:19.366Z,59
2019-06-27T04:27:21.919Z,59
2019-06-27T04:28:24.002Z,59
2019-06-27T04:29:35.651Z,60
2019-06-27T04:30:38.094Z,58
2019-06-27T04:31:40.510Z,58
2019-06-27T04:32:42.587Z,57
2019-06-27T04:33:44.966Z,58
2019-06-27T04:34:47.403Z,58
2019-06-27T04:35:49.773Z,58
2019-06-27T04:36:51.923Z,57
2019-06-27T04:37:54.017Z,58
2019-06-27T04:38:56.753Z,58
2019-06-27T04:39:59.574Z,57
2019-06-27T04:41:02.487Z,57
2019-06-27T04:42:04.634Z,57
2019-06-27T04:43:07.633Z,57
2019-06-27T04:44:10.410Z,56
2019-06-27T04:45:13.075Z,57
2019-06-27T04:46:15.641Z,57
2019-06-27T04:47:18.368Z,57
2019-06-27T04:48:20.620Z,57
2019-06-27T04:49:23.063Z,57
2019-06-27T04:50:25.853Z,58
2019-06-27T04:51:29.019Z,57
2019-06-27T04:52:31.498Z,56
2019-06-27T04:53:33.614Z,57
2019-06-27T04:54:36.596Z,57
2019-06-27T04:55:38.715Z,57
2019-06-27T04:56:41.218Z,56
2019-06-27T04:57:43.468Z,56
2019-06-27T04:58:45.870Z,56
2019-06-27T04:59:55.094Z,56
2019-06-27T05:00:57.205Z,56
2019-06-27T05:01:59.302Z,55
2019-06-27T05:03:01.683Z,56
2019-06-27T05:04:03.824Z,56
2019-06-27T05:05:06.568Z,56
2019-06-27T05:06:09.037Z,56
2019-06-27T05:07:11.218Z,57
2019-06-27T05:08:16.059Z,56
2019-06-27T05:09:18.203Z,56
2019-06-27T05:10:20.301Z,56
2019-06-27T05:11:22.470Z,56
2019-06-27T05:12:24.883Z,56
2019-06-27T05:13:26.972Z,56
2019-06-27T05:14:33.139Z,55
2019-06-27T05:15:35.597Z,56
2019-06-27T05:16:38.113Z,56
2019-06-27T05:17:40.234Z,55
2019-06-27T05:18:42.790Z,55
2019-06-27T05:19:44.882Z,55
2019-06-27T05:20:46.983Z,54
2019-06-27T05:21:49.098Z,54
2019-06-27T05:22:51.185Z,54
2019-06-27T05:23:53.331Z,55
2019-06-27T05:24:55.685Z,54
2019-06-27T05:25:57.848Z,54
2019-06-27T05:27:00.286Z,55
2019-06-27T05:28:02.719Z,55
2019-06-27T05:29:04.857Z,55
2019-06-27T05:30:11.417Z,55
2019-06-27T05:31:13.557Z,55
2019-06-27T05:32:15.933Z,56
2019-06-27T05:33:18.343Z,54
2019-06-27T05:34:20.472Z,55
2019-06-27T05:35:23.373Z,54
2019-06-27T05:36:25.929Z,53
2019-06-27T05:37:28.026Z,54
2019-06-27T05:38:30.095Z,54
2019-06-27T05:39:32.141Z,54
2019-06-27T05:40:34.247Z,54
2019-06-27T05:41:36.387Z,54
2019-06-27T05:42:38.440Z,54
2019-06-27T05:43:40.872Z,55
2019-06-27T05:44:42.945Z,54
2019-06-27T05:45:45.065Z,53
2019-06-27T05:46:47.492Z,54
2019-06-27T05:47:49.571Z,53
2019-06-27T05:48:52.126Z,53
2019-06-27T05:49:54.436Z,53
2019-06-27T05:50:56.586Z,53
2019-06-27T05:51:58.680Z,53
2019-06-27T05:53:00.752Z,54
2019-06-27T05:54:03.291Z,54
2019-06-27T05:55:05.378Z,54
2019-06-27T05:56:07.912Z,53
2019-06-27T05:57:09.995Z,53
2019-06-27T05:58:12.471Z,54
2019-06-27T05:59:14.950Z,53
2019-06-27T06:00:30.772Z,53
2019-06-27T06:01:33.932Z,53
2019-06-27T06:02:36.262Z,52
2019-06-27T06:03:38.843Z,52
2019-06-27T06:04:41.208Z,53
2019-06-27T06:05:43.641Z,53
2019-06-27T06:06:46.350Z,53
2019-06-27T06:07:48.807Z,53
2019-06-27T06:08:50.957Z,53
2019-06-27T06:09:53.344Z,53
2019-06-27T06:10:55.512Z,54
2019-06-27T06:11:57.584Z,54
2019-06-27T06:12:59.638Z,54
2019-06-27T06:14:02.497Z,53
2019-06-27T06:15:04.733Z,52
2019-06-27T06:16:06.883Z,52
2019-06-27T06:17:08.999Z,53
2019-06-27T06:18:11.141Z,52
2019-06-27T06:19:13.684Z,52
2019-06-27T06:20:15.744Z,52
2019-06-27T06:21:18.302Z,52
2019-06-27T06:22:21.026Z,51
2019-06-27T06:23:23.154Z,52
2019-06-27T06:24:25.582Z,53
2019-06-27T06:25:27.763Z,53
2019-06-27T06:26:30.451Z,53
2019-06-27T06:27:32.520Z,54
2019-06-27T06:28:34.980Z,53
2019-06-27T06:29:37.457Z,53
2019-06-27T06:30:46.056Z,53
2019-06-27T06:31:50.424Z,52
2019-06-27T06:32:52.809Z,53
2019-06-27T06:33:54.901Z,52
2019-06-27T06:34:56.995Z,53
2019-06-27T06:35:59.116Z,52
2019-06-27T06:37:02.335Z,51
2019-06-27T06:38:04.760Z,51
2019-06-27T06:39:06.884Z,51
2019-06-27T06:40:09.003Z,52
2019-06-27T06:41:11.416Z,52
2019-06-27T06:42:14.841Z,52
2019-06-27T06:43:18.427Z,52
2019-06-27T06:44:23.153Z,51
2019-06-27T06:45:30.427Z,51
2019-06-27T06:46:37.808Z,51
2019-06-27T06:47:46.611Z,51
2019-06-27T06:48:56.364Z,51
2019-06-27T06:50:13.502Z,52
2019-06-27T06:51:21.329Z,52
2019-06-27T06:52:34.972Z,52
2019-06-27T06:53:55.547Z,52
2019-06-27T06:55:13.248Z,51
2019-06-27T06:56:24.130Z,51
2019-06-27T06:57:34.470Z,51
2019-06-27T06:58:41.023Z,51
2019-06-27T06:59:46.780Z,50
2019-06-27T07:01:03.636Z,51
2019-06-27T07:02:06.035Z,51
2019-06-27T07:03:08.410Z,51
2019-06-27T07:04:11.172Z,50
2019-06-27T07:05:13.283Z,51
2019-06-27T07:06:15.667Z,51
2019-06-27T07:07:17.766Z,51
2019-06-27T07:08:20.600Z,51
2019-06-27T07:09:23.132Z,50
2019-06-27T07:10:25.257Z,49
2019-06-27T07:11:27.441Z,49
2019-06-27T07:12:29.962Z,49
2019-06-27T07:13:32.100Z,49
2019-06-27T07:14:35.007Z,50
2019-06-27T07:15:37.500Z,50
2019-06-27T07:16:39.965Z,50
2019-06-27T07:17:42.100Z,49
2019-06-27T07:18:44.513Z,49
2019-06-27T07:19:46.949Z,49
2019-06-27T07:20:49.684Z,49
2019-06-27T07:21:51.792Z,50
2019-06-27T07:22:53.897Z,50
2019-06-27T07:23:56.616Z,50
2019-06-27T07:25:00.055Z,50
2019-06-27T07:26:02.502Z,50
2019-06-27T07:27:04.581Z,50
2019-06-27T07:28:06.688Z,50
2019-06-27T07:29:09.542Z,50
2019-06-27T07:30:12.268Z,50
2019-06-27T07:31:19.308Z,50
2019-06-27T07:32:21.539Z,49
2019-06-27T07:33:23.610Z,49
2019-06-27T07:34:26.030Z,50
2019-06-27T07:35:28.463Z,49
2019-06-27T07:36:31.511Z,49
2019-06-27T07:37:34.266Z,49
2019-06-27T07:38:36.837Z,49
2019-06-27T07:39:38.927Z,49
2019-06-27T07:40:41.052Z,49
2019-06-27T07:41:44.340Z,49
2019-06-27T07:42:46.433Z,49
2019-06-27T07:43:48.573Z,49
2019-06-27T07:44:51.131Z,49
2019-06-27T07:45:54.236Z,49
2019-06-27T07:46:57.187Z,49
2019-06-27T07:47:59.237Z,49
2019-06-27T07:49:01.405Z,48
2019-06-27T07:50:04.498Z,47
2019-06-27T07:51:07.011Z,48
2019-06-27T07:52:09.052Z,47
2019-06-27T07:53:11.613Z,48
2019-06-27T07:54:13.722Z,47
2019-06-27T07:55:16.213Z,48
2019-06-27T07:56:18.393Z,47
2019-06-27T07:57:20.500Z,48
2019-06-27T07:58:23.059Z,48
2019-06-27T07:59:25.207Z,47
2019-06-27T08:00:27.700Z,46
2019-06-27T08:01:37.116Z,46
2019-06-27T08:02:39.239Z,46
2019-06-27T08:03:41.361Z,47
2019-06-27T08:04:43.855Z,46
2019-06-27T08:05:46.445Z,46
2019-06-27T08:06:48.826Z,46
2019-06-27T08:07:51.795Z,46
2019-06-27T08:08:54.126Z,46
2019-06-27T08:09:56.221Z,46
2019-06-27T08:10:58.379Z,46
2019-06-27T08:12:01.160Z,47
2019-06-27T08:13:03.727Z,45
2019-06-27T08:14:06.108Z,45
2019-06-27T08:15:08.294Z,45
2019-06-27T08:16:10.441Z,45
2019-06-27T08:17:12.933Z,45
2019-06-27T08:18:15.092Z,46
2019-06-27T08:19:17.530Z,44
2019-06-27T08:20:19.896Z,46
2019-06-27T08:21:21.997Z,46
2019-06-27T08:22:24.662Z,46
2019-06-27T08:23:42.883Z,45
2019-06-27T08:24:44.965Z,45
2019-06-27T08:25:47.124Z,46
2019-06-27T08:26:49.260Z,45
2019-06-27T08:27:51.419Z,45
2019-06-27T08:28:53.612Z,45
2019-06-27T08:29:55.721Z,45
2019-06-27T08:30:57.867Z,46
2019-06-27T08:32:00.809Z,46
2019-06-27T08:33:03.777Z,45
2019-06-27T08:34:06.615Z,46
2019-06-27T08:35:09.057Z,45
2019-06-27T08:36:11.791Z,46
2019-06-27T08:37:13.901Z,45
2019-06-27T08:38:16.426Z,45
2019-06-27T08:39:18.531Z,45
2019-06-27T08:40:20.987Z,45
2019-06-27T08:41:23.704Z,46
2019-06-27T08:42:26.178Z,46
2019-06-27T08:43:32.706Z,45
2019-06-27T08:44:39.234Z,45
2019-06-27T08:45:42.852Z,46
2019-06-27T08:46:48.095Z,45
2019-06-27T08:47:50.177Z,44
2019-06-27T08:48:52.571Z,45
2019-06-27T08:49:54.674Z,45
2019-06-27T08:50:56.769Z,44
2019-06-27T08:51:59.126Z,45
2019-06-27T08:53:02.435Z,45
2019-06-27T08:54:05.257Z,45
2019-06-27T08:55:07.758Z,44
2019-06-27T08:56:10.276Z,43
2019-06-27T08:57:12.438Z,44
2019-06-27T08:58:14.596Z,45
2019-06-27T08:59:16.735Z,45
2019-06-27T09:00:18.879Z,44
2019-06-27T09:01:20.954Z,44
2019-06-27T09:02:23.031Z,44
2019-06-27T09:03:25.502Z,44
2019-06-27T09:04:28.855Z,44
2019-06-27T09:05:31.341Z,44
2019-06-27T09:06:33.429Z,43
2019-06-27T09:07:35.575Z,44
2019-06-27T09:08:37.981Z,43
2019-06-27T09:09:40.712Z,42
2019-06-27T09:10:43.137Z,43
2019-06-27T09:11:45.564Z,42
2019-06-27T09:12:48.365Z,43
2019-06-27T09:13:50.467Z,43
2019-06-27T09:14:52.622Z,43
2019-06-27T09:15:54.729Z,42
2019-06-27T09:16:57.171Z,42
2019-06-27T09:17:59.310Z,42
2019-06-27T09:19:02.124Z,41
2019-06-27T09:20:04.699Z,43
2019-06-27T09:21:07.086Z,42
2019-06-27T09:22:09.211Z,42
2019-06-27T09:23:11.737Z,43
2019-06-27T09:24:13.834Z,43
2019-06-27T09:25:16.041Z,43
2019-06-27T09:26:19.076Z,42
2019-06-27T09:27:21.645Z,42
2019-06-27T09:28:23.753Z,42
2019-06-27T09:29:26.475Z,43
2019-06-27T09:30:28.968Z,45
2019-06-27T09:31:31.383Z,42
2019-06-27T09:32:33.807Z,40
2019-06-27T09:33:36.283Z,41
2019-06-27T09:34:38.430Z,41
2019-06-27T09:35:40.935Z,41
2019-06-27T09:36:43.063Z,41
2019-06-27T09:37:45.161Z,42
2019-06-27T09:38:47.770Z,41
2019-06-27T09:39:49.951Z,41
2019-06-27T09:40:52.368Z,41
2019-06-27T09:41:54.449Z,40
2019-06-27T09:42:56.695Z,41
2019-06-27T09:43:58.830Z,41
2019-06-27T09:45:00.979Z,41
2019-06-27T09:46:03.494Z,41
2019-06-27T09:47:05.659Z,41
2019-06-27T09:48:08.889Z,41
2019-06-27T09:49:11.392Z,40
2019-06-27T09:50:13.505Z,38
2019-06-27T09:51:15.941Z,39
2019-06-27T09:52:18.524Z,39
2019-06-27T09:53:20.907Z,39
2019-06-27T09:54:23.273Z,39
2019-06-27T09:55:26.043Z,40
2019-06-27T09:56:28.169Z,39
2019-06-27T09:57:31.511Z,40
2019-06-27T09:58:33.703Z,38
2019-06-27T09:59:35.889Z,38
2019-06-27T10:00:38.251Z,38
2019-06-27T10:01:40.665Z,38
2019-06-27T10:02:43.822Z,40
2019-06-27T10:03:46.329Z,40
2019-06-27T10:04:49.119Z,39
2019-06-27T10:05:51.215Z,39
2019-06-27T10:06:53.380Z,38
2019-06-27T10:07:55.521Z,38
2019-06-27T10:08:57.853Z,39
2019-06-27T10:09:59.963Z,38
2019-06-27T10:11:02.165Z,38
2019-06-27T10:12:04.568Z,39
2019-06-27T10:13:06.673Z,38
2019-06-27T10:14:09.101Z,39
2019-06-27T10:15:11.205Z,39
2019-06-27T10:16:13.593Z,38
2019-06-27T10:17:15.959Z,37
2019-06-27T10:18:18.053Z,37
2019-06-27T10:19:20.966Z,37
2019-06-27T10:20:23.060Z,37
2019-06-27T10:21:25.462Z,37
2019-06-27T10:22:27.601Z,37
2019-06-27T10:23:29.776Z,37
2019-06-27T10:24:32.347Z,37
2019-06-27T10:25:38.891Z,38
2019-06-27T10:26:41.351Z,37
2019-06-27T10:27:43.447Z,37
2019-06-27T10:28:46.309Z,36
2019-06-27T10:29:48.805Z,37
2019-06-27T10:30:50.915Z,36
2019-06-27T10:31:53.042Z,35
2019-06-27T10:33:01.264Z,38
2019-06-27T10:34:03.408Z,38
2019-06-27T10:35:05.548Z,38
2019-06-27T10:36:07.661Z,37
2019-06-27T10:37:10.079Z,36
2019-06-27T10:38:12.861Z,35
2019-06-27T10:39:15.036Z,35
2019-06-27T10:40:17.854Z,36
2019-06-27T10:41:19.939Z,36
2019-06-27T10:42:22.332Z,38
2019-06-27T10:43:24.454Z,39
2019-06-27T10:44:26.543Z,40
2019-06-27T10:45:28.913Z,38
2019-06-27T10:46:31.085Z,37
2019-06-27T10:47:33.526Z,38
2019-06-27T10:48:36.032Z,38
2019-06-27T10:49:38.508Z,36
2019-06-27T10:50:40.603Z,37
2019-06-27T10:51:42.753Z,37
2019-06-27T10:52:44.850Z,37
2019-06-27T10:53:47.053Z,37
2019-06-27T10:54:49.199Z,37
2019-06-27T10:55:51.993Z,35
2019-06-27T10:56:54.516Z,34
2019-06-27T10:57:56.915Z,35
2019-06-27T10:58:59.400Z,35
2019-06-27T11:00:02.721Z,35
2019-06-27T11:01:05.136Z,35
2019-06-27T11:02:07.546Z,35
2019-06-27T11:03:17.573Z,36
2019-06-27T11:04:20.148Z,36
2019-06-27T11:05:22.236Z,36
2019-06-27T11:06:24.412Z,36
2019-06-27T11:07:26.519Z,36
2019-06-27T11:08:28.621Z,36
2019-06-27T11:09:30.869Z,37
2019-06-27T11:10:33.531Z,36
2019-06-27T11:11:36.294Z,36
2019-06-27T11:12:38.711Z,36
2019-06-27T11:13:40.868Z,35
2019-06-27T11:15:00.938Z,35
2019-06-27T11:16:03.045Z,34
2019-06-27T11:17:05.165Z,35
2019-06-27T11:18:07.270Z,36
2019-06-27T11:19:09.472Z,35
2019-06-27T11:20:16.303Z,35
2019-06-27T11:21:18.450Z,36
2019-06-27T11:22:20.995Z,35
2019-06-27T11:23:23.502Z,36
2019-06-27T11:24:25.600Z,36
2019-06-27T11:25:28.425Z,36
2019-06-27T11:26:30.965Z,36
2019-06-27T11:27:33.472Z,36
2019-06-27T11:28:35.925Z,36
2019-06-27T11:29:38.080Z,35
2019-06-27T11:30:40.553Z,36
2019-06-27T11:31:42.738Z,35
2019-06-27T11:32:44.945Z,34
2019-06-27T11:33:47.066Z,33
2019-06-27T11:34:49.206Z,34
2019-06-27T11:35:51.908Z,35
2019-06-27T11:36:54.012Z,35
2019-06-27T11:37:56.145Z,37
2019-06-27T11:38:58.318Z,37
2019-06-27T11:40:00.809Z,37
2019-06-27T11:41:03.254Z,37
2019-06-27T11:42:05.650Z,37
2019-06-27T11:43:07.717Z,37
2019-06-27T11:44:10.184Z,38
2019-06-27T11:45:12.292Z,38
2019-06-27T11:46:14.453Z,37
2019-06-27T11:47:16.517Z,35
2019-06-27T11:48:18.951Z,36
2019-06-27T11:49:22.034Z,36
2019-06-27T11:50:24.499Z,37
2019-06-27T11:51:26.666Z,36
2019-06-27T11:52:28.778Z,37
2019-06-27T11:53:30.933Z,36
2019-06-27T11:54:32.989Z,35
2019-06-27T11:55:35.116Z,36
2019-06-27T11:56:37.217Z,36
2019-06-27T11:57:39.311Z,37
2019-06-27T11:58:41.425Z,38
2019-06-27T11:59:43.521Z,38
2019-06-27T12:00:45.633Z,38
2019-06-27T12:01:47.737Z,37
2019-06-27T12:02:50.037Z,37
2019-06-27T12:03:52.490Z,36
2019-06-27T12:04:54.615Z,37
2019-06-27T12:05:56.704Z,35
2019-06-27T12:06:58.811Z,36
2019-06-27T12:08:01.896Z,36
2019-06-27T12:09:05.037Z,36
2019-06-27T12:10:07.822Z,37
2019-06-27T12:11:10.141Z,36
2019-06-27T12:12:12.582Z,35
2019-06-27T12:13:14.718Z,36
2019-06-27T12:14:17.214Z,35
2019-06-27T12:15:19.935Z,35
2019-06-27T12:16:22.032Z,35
2019-06-27T12:17:24.136Z,35
2019-06-27T12:18:26.289Z,35
2019-06-27T12:19:28.405Z,35
2019-06-27T12:20:30.558Z,36
2019-06-27T12:21:33.365Z,36
2019-06-27T12:22:35.479Z,36
2019-06-27T12:23:37.646Z,36
2019-06-27T12:24:40.570Z,36
2019-06-27T12:25:42.736Z,36
2019-06-27T12:26:45.140Z,36
2019-06-27T12:27:47.562Z,36
2019-06-27T12:28:49.967Z,36
2019-06-27T12:29:52.021Z,38
2019-06-27T12:30:54.112Z,38
2019-06-27T12:31:56.525Z,38
2019-06-27T12:32:58.899Z,37
2019-06-27T12:34:08.576Z,37
2019-06-27T12:35:10.681Z,37
2019-06-27T12:36:12.911Z,38
2019-06-27T12:37:15.228Z,37
2019-06-27T12:38:17.400Z,37
2019-06-27T12:39:19.508Z,36
2019-06-27T12:40:22.076Z,36
2019-06-27T12:41:24.186Z,37
2019-06-27T12:42:33.997Z,36
2019-06-27T12:43:36.099Z,36
2019-06-27T12:44:38.207Z,35
2019-06-27T12:45:40.385Z,35
2019-06-27T12:46:42.751Z,35
2019-06-27T12:47:45.977Z,35
2019-06-27T12:48:48.454Z,35
2019-06-27T12:50:03.988Z,35
2019-06-27T12:51:06.105Z,35
2019-06-27T12:52:08.216Z,35
2019-06-27T12:53:10.360Z,35
2019-06-27T12:54:12.460Z,35
2019-06-27T12:55:14.642Z,35
2019-06-27T12:56:17.607Z,35
2019-06-27T12:57:20.408Z,35
2019-06-27T12:58:23.231Z,34
2019-06-27T12:59:25.729Z,34
2019-06-27T13:00:28.311Z,33
2019-06-27T13:01:30.435Z,34
2019-06-27T13:02:32.914Z,33
2019-06-27T13:03:35.690Z,33
2019-06-27T13:04:38.475Z,32
2019-06-27T13:05:41.253Z,33
2019-06-27T13:06:43.385Z,33
2019-06-27T13:07:45.936Z,32
2019-06-27T13:08:48.712Z,33
2019-06-27T13:09:51.990Z,33
2019-06-27T13:10:54.387Z,32
2019-06-27T13:11:56.474Z,32
2019-06-27T13:12:58.691Z,33
2019-06-27T13:14:01.219Z,33
2019-06-27T13:15:04.086Z,34
2019-06-27T13:16:06.519Z,33
2019-06-27T13:17:09.231Z,33
2019-06-27T13:18:11.627Z,32
2019-06-27T13:19:13.712Z,33
2019-06-27T13:20:16.162Z,32
2019-06-27T13:21:18.982Z,32
2019-06-27T13:22:21.179Z,33
2019-06-27T13:23:23.591Z,32
2019-06-27T13:24:26.088Z,31
2019-06-27T13:25:28.256Z,32
2019-06-27T13:26:31.254Z,31
2019-06-27T13:27:33.925Z,31
2019-06-27T13:28:36.016Z,31
2019-06-27T13:29:38.431Z,32
2019-06-27T13:30:40.852Z,32
2019-06-27T13:31:43.187Z,33
2019-06-27T13:32:45.309Z,32
2019-06-27T13:33:47.721Z,32
2019-06-27T13:34:50.327Z,32
2019-06-27T13:35:52.429Z,31
2019-06-27T13:36:54.552Z,31
2019-06-27T13:37:56.947Z,30
2019-06-27T13:38:59.047Z,30
2019-06-27T13:40:05.639Z,30
2019-06-27T13:41:08.042Z,32
2019-06-27T13:42:10.210Z,32
2019-06-27T13:43:12.605Z,31
2019-06-27T13:44:14.709Z,30
2019-06-27T13:45:17.188Z,30
2019-06-27T13:46:19.694Z,29
2019-06-27T13:47:21.865Z,30
2019-06-27T13:48:23.962Z,31
2019-06-27T13:49:26.473Z,31
2019-06-27T13:50:28.579Z,32
2019-06-27T13:51:30.690Z,32
2019-06-27T13:52:32.834Z,31
2019-06-27T13:53:34.943Z,31
2019-06-27T13:54:37.108Z,31
2019-06-27T13:55:39.537Z,30
2019-06-27T13:56:42.337Z,30
2019-06-27T13:57:45.167Z,29
2019-06-27T13:58:47.282Z,29
2019-06-27T13:59:50.525Z,29
2019-06-27T14:00:52.917Z,30
2019-06-27T14:01:55.081Z,31
2019-06-27T14:02:57.475Z,30
2019-06-27T14:03:59.620Z,30
2019-06-27T14:05:02.782Z,31
2019-06-27T14:06:04.907Z,31
2019-06-27T14:07:07.450Z,32
2019-06-27T14:08:09.965Z,32
2019-06-27T14:09:24.836Z,31
2019-06-27T14:10:26.924Z,30
2019-06-27T14:11:29.336Z,30
2019-06-27T14:12:31.852Z,31
2019-06-27T14:13:33.965Z,31
2019-06-27T14:14:36.081Z,30
2019-06-27T14:15:38.257Z,31
2019-06-27T14:16:40.792Z,31
2019-06-27T14:17:43.180Z,31
2019-06-27T14:18:45.267Z,30
2019-06-27T14:19:51.694Z,30
2019-06-27T14:20:54.165Z,31
2019-06-27T14:21:59.745Z,30
2019-06-27T14:23:02.181Z,30
2019-06-27T14:24:04.356Z,30
2019-06-27T14:25:07.042Z,30
2019-06-27T14:26:09.136Z,30
2019-06-27T14:27:11.614Z,29
2019-06-27T14:28:14.028Z,29
2019-06-27T14:29:16.190Z,29
2019-06-27T14:30:18.314Z,29
2019-06-27T14:31:20.385Z,30
2019-06-27T14:32:22.439Z,31
2019-06-27T14:33:24.548Z,29
2019-06-27T14:34:26.713Z,29
2019-06-27T14:35:29.385Z,30
2019-06-27T14:36:32.387Z,29
2019-06-27T14:37:34.509Z,30
2019-06-27T14:38:36.615Z,29
2019-06-27T14:39:38.746Z,30
2019-06-27T14:40:41.098Z,31
2019-06-27T14:41:43.251Z,31
2019-06-27T14:42:45.351Z,31
2019-06-27T14:43:47.746Z,31
2019-06-27T14:44:50.212Z,31
2019-06-27T14:45:52.993Z,32
2019-06-27T14:46:55.140Z,32
2019-06-27T14:47:57.939Z,32
2019-06-27T14:49:00.542Z,31
2019-06-27T14:50:03.037Z,31
2019-06-27T14:51:05.487Z,30
2019-06-27T14:52:07.600Z,29
2019-06-27T14:53:10.010Z,29
2019-06-27T14:54:12.838Z,31
2019-06-27T14:55:14.939Z,30